sensor_id;sensor_type;location;lat;lon;timestamp;P1;durP1;ratioP1;P2;durP2;ratioP2
29330;SDS011;16331;52.528;13.342;2022-08-26T00:01:32;12.40;;;5.72;;
29330;SDS011;16331;52.528;13.342;2022-08-26T00:03:58;9.63;;;5.15;;
29330;SDS011;16331;52.528;13.342;2022-08-26T00:06:25;9.85;;;5.03;;
29330;SDS011;16331;52.528;13.342;2022-08-26T00:08:51;18.65;;;6.13;;
29330;SDS011;16331;52.528;13.342;2022-08-26T00:11:18;16.27;;;5.93;;
29330;SDS011;16331;52.528;13.342;2022-08-26T00:13:44;14.15;;;5.10;;
29330;SDS011;16331;52.528;13.342;2022-08-26T00:16:10;12.95;;;5.82;;
29330;SDS011;16331;52.528;13.342;2022-08-26T00:18:37;16.45;;;6.20;;
29330;SDS011;16331;52.528;13.342;2022-08-26T00:21:04;15.40;;;5.70;;
29330;SDS011;16331;52.528;13.342;2022-08-26T00:23:31;16.30;;;5.60;;
29330;SDS011;16331;52.528;13.342;2022-08-26T00:25:57;16.42;;;6.22;;
29330;SDS011;16331;52.528;13.342;2022-08-26T00:28:23;10.75;;;5.40;;
29330;SDS011;16331;52.528;13.342;2022-08-26T00:30:50;13.63;;;6.13;;
29330;SDS011;16331;52.528;13.342;2022-08-26T00:33:17;10.38;;;5.55;;
29330;SDS011;16331;52.528;13.342;2022-08-26T00:35:44;12.48;;;5.45;;
29330;SDS011;16331;52.528;13.342;2022-08-26T00:38:10;14.30;;;5.80;;
29330;SDS011;16331;52.528;13.342;2022-08-26T00:40:38;15.85;;;5.63;;
29330;SDS011;16331;52.528;13.342;2022-08-26T00:43:09;12.43;;;5.75;;
29330;SDS011;16331;52.528;13.342;2022-08-26T00:45:46;18.00;;;6.55;;
29330;SDS011;16331;52.528;13.342;2022-08-26T00:48:35;11.63;;;5.28;;
29330;SDS011;16331;52.528;13.342;2022-08-26T00:51:11;14.85;;;6.53;;
29330;SDS011;16331;52.528;13.342;2022-08-26T00:53:44;9.52;;;6.43;;
29330;SDS011;16331;52.528;13.342;2022-08-26T00:58:47;20.75;;;6.53;;
29330;SDS011;16331;52.528;13.342;2022-08-26T01:01:14;16.88;;;6.45;;
29330;SDS011;16331;52.528;13.342;2022-08-26T01:03:42;16.17;;;6.05;;
29330;SDS011;16331;52.528;13.342;2022-08-26T01:06:10;14.50;;;5.65;;
29330;SDS011;16331;52.528;13.342;2022-08-26T01:08:37;13.85;;;5.57;;
29330;SDS011;16331;52.528;13.342;2022-08-26T01:11:04;14.05;;;5.13;;
29330;SDS011;16331;52.528;13.342;2022-08-26T01:13:30;11.23;;;6.55;;
29330;SDS011;16331;52.528;13.342;2022-08-26T01:15:58;12.10;;;5.63;;
29330;SDS011;16331;52.528;13.342;2022-08-26T01:18:27;18.98;;;5.78;;
29330;SDS011;16331;52.528;13.342;2022-08-26T01:21:03;9.93;;;5.85;;
29330;SDS011;16331;52.528;13.342;2022-08-26T01:23:52;16.65;;;6.43;;
29330;SDS011;16331;52.528;13.342;2022-08-26T01:26:23;12.48;;;6.25;;
29330;SDS011;16331;52.528;13.342;2022-08-26T01:28:54;17.27;;;6.28;;
29330;SDS011;16331;52.528;13.342;2022-08-26T01:31:23;10.27;;;5.35;;
29330;SDS011;16331;52.528;13.342;2022-08-26T01:33:58;9.43;;;5.47;;
29330;SDS011;16331;52.528;13.342;2022-08-26T01:36:39;13.10;;;5.70;;
29330;SDS011;16331;52.528;13.342;2022-08-26T01:39:06;12.95;;;6.45;;
29330;SDS011;16331;52.528;13.342;2022-08-26T01:41:33;12.23;;;6.30;;
29330;SDS011;16331;52.528;13.342;2022-08-26T01:44:02;15.18;;;6.70;;
29330;SDS011;16331;52.528;13.342;2022-08-26T01:46:30;12.32;;;6.00;;
29330;SDS011;16331;52.528;13.342;2022-08-26T01:48:59;11.50;;;5.47;;
29330;SDS011;16331;52.528;13.342;2022-08-26T01:51:28;17.67;;;6.07;;
29330;SDS011;16331;52.528;13.342;2022-08-26T01:53:57;16.67;;;6.93;;
29330;SDS011;16331;52.528;13.342;2022-08-26T01:56:23;13.50;;;6.18;;
29330;SDS011;16331;52.528;13.342;2022-08-26T01:58:51;13.38;;;6.38;;
29330;SDS011;16331;52.528;13.342;2022-08-26T02:01:21;10.07;;;5.85;;
29330;SDS011;16331;52.528;13.342;2022-08-26T02:03:50;15.63;;;6.38;;
29330;SDS011;16331;52.528;13.342;2022-08-26T02:06:31;11.73;;;6.57;;
29330;SDS011;16331;52.528;13.342;2022-08-26T02:09:00;17.85;;;6.65;;
29330;SDS011;16331;52.528;13.342;2022-08-26T02:11:27;10.82;;;6.47;;
29330;SDS011;16331;52.528;13.342;2022-08-26T02:13:55;14.70;;;6.32;;
29330;SDS011;16331;52.528;13.342;2022-08-26T02:16:26;15.50;;;6.18;;
29330;SDS011;16331;52.528;13.342;2022-08-26T02:18:56;14.35;;;6.40;;
29330;SDS011;16331;52.528;13.342;2022-08-26T02:21:24;15.07;;;6.95;;
29330;SDS011;16331;52.528;13.342;2022-08-26T02:23:50;11.23;;;5.88;;
29330;SDS011;16331;52.528;13.342;2022-08-26T02:26:18;16.98;;;6.50;;
29330;SDS011;16331;52.528;13.342;2022-08-26T02:28:57;12.63;;;5.90;;
29330;SDS011;16331;52.528;13.342;2022-08-26T02:31:29;11.93;;;6.63;;
29330;SDS011;16331;52.528;13.342;2022-08-26T02:33:58;13.45;;;6.40;;
29330;SDS011;16331;52.528;13.342;2022-08-26T02:36:35;13.80;;;7.15;;
29330;SDS011;16331;52.528;13.342;2022-08-26T02:39:02;16.40;;;7.75;;
29330;SDS011;16331;52.528;13.342;2022-08-26T02:41:29;18.42;;;7.03;;
29330;SDS011;16331;52.528;13.342;2022-08-26T02:43:55;11.70;;;6.97;;
29330;SDS011;16331;52.528;13.342;2022-08-26T02:46:21;18.40;;;7.20;;
29330;SDS011;16331;52.528;13.342;2022-08-26T02:48:47;17.02;;;6.65;;
29330;SDS011;16331;52.528;13.342;2022-08-26T02:51:14;13.98;;;7.55;;
29330;SDS011;16331;52.528;13.342;2022-08-26T02:53:40;16.55;;;7.28;;
29330;SDS011;16331;52.528;13.342;2022-08-26T02:56:06;12.63;;;7.13;;
29330;SDS011;16331;52.528;13.342;2022-08-26T02:58:33;11.38;;;6.88;;
29330;SDS011;16331;52.528;13.342;2022-08-26T03:00:59;15.50;;;6.75;;
29330;SDS011;16331;52.528;13.342;2022-08-26T03:03:27;15.00;;;7.15;;
29330;SDS011;16331;52.528;13.342;2022-08-26T03:05:54;15.73;;;7.63;;
29330;SDS011;16331;52.528;13.342;2022-08-26T03:08:20;14.15;;;7.05;;
29330;SDS011;16331;52.528;13.342;2022-08-26T03:10:46;13.07;;;6.47;;
29330;SDS011;16331;52.528;13.342;2022-08-26T03:13:15;20.15;;;7.88;;
29330;SDS011;16331;52.528;13.342;2022-08-26T03:15:41;21.13;;;8.52;;
29330;SDS011;16331;52.528;13.342;2022-08-26T03:18:07;17.02;;;7.75;;
29330;SDS011;16331;52.528;13.342;2022-08-26T03:20:33;17.50;;;7.43;;
29330;SDS011;16331;52.528;13.342;2022-08-26T03:22:59;15.23;;;7.55;;
29330;SDS011;16331;52.528;13.342;2022-08-26T03:25:28;13.52;;;6.88;;
29330;SDS011;16331;52.528;13.342;2022-08-26T03:27:54;16.00;;;7.45;;
29330;SDS011;16331;52.528;13.342;2022-08-26T03:30:22;12.50;;;6.60;;
29330;SDS011;16331;52.528;13.342;2022-08-26T03:33:06;19.65;;;6.95;;
29330;SDS011;16331;52.528;13.342;2022-08-26T03:35:35;15.65;;;7.25;;
29330;SDS011;16331;52.528;13.342;2022-08-26T03:38:03;12.27;;;7.80;;
29330;SDS011;16331;52.528;13.342;2022-08-26T03:40:32;14.95;;;7.38;;
29330;SDS011;16331;52.528;13.342;2022-08-26T03:42:59;18.48;;;7.60;;
29330;SDS011;16331;52.528;13.342;2022-08-26T03:45:26;22.13;;;8.15;;
29330;SDS011;16331;52.528;13.342;2022-08-26T03:47:52;12.90;;;7.05;;
29330;SDS011;16331;52.528;13.342;2022-08-26T03:50:19;20.08;;;7.55;;
29330;SDS011;16331;52.528;13.342;2022-08-26T03:52:47;13.02;;;7.15;;
29330;SDS011;16331;52.528;13.342;2022-08-26T03:55:16;19.63;;;7.53;;
29330;SDS011;16331;52.528;13.342;2022-08-26T03:57:45;14.73;;;8.18;;
29330;SDS011;16331;52.528;13.342;2022-08-26T04:00:13;20.75;;;7.53;;
29330;SDS011;16331;52.528;13.342;2022-08-26T04:02:42;18.58;;;7.25;;
29330;SDS011;16331;52.528;13.342;2022-08-26T04:05:10;13.60;;;7.15;;
29330;SDS011;16331;52.528;13.342;2022-08-26T04:07:38;17.33;;;7.43;;
29330;SDS011;16331;52.528;13.342;2022-08-26T04:10:05;16.05;;;7.75;;
29330;SDS011;16331;52.528;13.342;2022-08-26T04:12:32;21.23;;;8.05;;
29330;SDS011;16331;52.528;13.342;2022-08-26T04:14:59;20.38;;;8.23;;
29330;SDS011;16331;52.528;13.342;2022-08-26T04:17:25;15.90;;;7.22;;
29330;SDS011;16331;52.528;13.342;2022-08-26T04:19:53;17.10;;;7.82;;
29330;SDS011;16331;52.528;13.342;2022-08-26T04:22:19;18.38;;;8.07;;
29330;SDS011;16331;52.528;13.342;2022-08-26T04:24:45;19.42;;;7.60;;
29330;SDS011;16331;52.528;13.342;2022-08-26T04:27:11;15.63;;;7.38;;
29330;SDS011;16331;52.528;13.342;2022-08-26T04:29:37;15.40;;;7.03;;
29330;SDS011;16331;52.528;13.342;2022-08-26T04:32:05;13.18;;;6.90;;
29330;SDS011;16331;52.528;13.342;2022-08-26T04:34:34;15.57;;;7.28;;
29330;SDS011;16331;52.528;13.342;2022-08-26T04:37:02;15.98;;;7.47;;
29330;SDS011;16331;52.528;13.342;2022-08-26T04:39:29;22.17;;;8.07;;
29330;SDS011;16331;52.528;13.342;2022-08-26T04:41:55;19.90;;;7.30;;
29330;SDS011;16331;52.528;13.342;2022-08-26T04:44:22;16.73;;;8.27;;
29330;SDS011;16331;52.528;13.342;2022-08-26T04:46:50;17.83;;;7.93;;
29330;SDS011;16331;52.528;13.342;2022-08-26T04:49:16;14.82;;;7.72;;
29330;SDS011;16331;52.528;13.342;2022-08-26T04:51:43;20.15;;;8.80;;
29330;SDS011;16331;52.528;13.342;2022-08-26T04:54:09;13.18;;;7.78;;
29330;SDS011;16331;52.528;13.342;2022-08-26T04:56:36;16.30;;;8.30;;
29330;SDS011;16331;52.528;13.342;2022-08-26T04:59:04;20.52;;;8.20;;
29330;SDS011;16331;52.528;13.342;2022-08-26T05:01:33;19.27;;;7.60;;
29330;SDS011;16331;52.528;13.342;2022-08-26T05:04:01;16.58;;;8.50;;
29330;SDS011;16331;52.528;13.342;2022-08-26T05:06:28;18.45;;;8.20;;
29330;SDS011;16331;52.528;13.342;2022-08-26T05:08:54;15.60;;;7.00;;
29330;SDS011;16331;52.528;13.342;2022-08-26T05:11:20;14.25;;;7.30;;
29330;SDS011;16331;52.528;13.342;2022-08-26T05:13:46;12.35;;;7.10;;
29330;SDS011;16331;52.528;13.342;2022-08-26T05:16:13;19.60;;;7.53;;
29330;SDS011;16331;52.528;13.342;2022-08-26T05:18:40;27.15;;;7.90;;
29330;SDS011;16331;52.528;13.342;2022-08-26T05:21:14;19.02;;;7.68;;
29330;SDS011;16331;52.528;13.342;2022-08-26T05:23:46;17.80;;;7.35;;
29330;SDS011;16331;52.528;13.342;2022-08-26T05:26:15;17.13;;;7.00;;
29330;SDS011;16331;52.528;13.342;2022-08-26T05:28:42;11.98;;;7.82;;
29330;SDS011;16331;52.528;13.342;2022-08-26T05:31:12;24.23;;;9.32;;
29330;SDS011;16331;52.528;13.342;2022-08-26T05:33:40;15.85;;;7.55;;
29330;SDS011;16331;52.528;13.342;2022-08-26T05:36:07;19.23;;;7.75;;
29330;SDS011;16331;52.528;13.342;2022-08-26T05:38:35;13.77;;;7.03;;
29330;SDS011;16331;52.528;13.342;2022-08-26T05:41:01;16.50;;;7.60;;
29330;SDS011;16331;52.528;13.342;2022-08-26T05:43:27;19.40;;;8.30;;
29330;SDS011;16331;52.528;13.342;2022-08-26T05:45:54;18.55;;;8.02;;
29330;SDS011;16331;52.528;13.342;2022-08-26T05:48:21;20.90;;;7.15;;
29330;SDS011;16331;52.528;13.342;2022-08-26T05:50:48;21.50;;;8.40;;
29330;SDS011;16331;52.528;13.342;2022-08-26T05:53:19;22.23;;;8.18;;
29330;SDS011;16331;52.528;13.342;2022-08-26T05:55:47;16.23;;;7.80;;
29330;SDS011;16331;52.528;13.342;2022-08-26T05:58:19;17.45;;;8.15;;
29330;SDS011;16331;52.528;13.342;2022-08-26T06:00:55;20.00;;;7.63;;
29330;SDS011;16331;52.528;13.342;2022-08-26T06:03:26;14.52;;;7.72;;
29330;SDS011;16331;52.528;13.342;2022-08-26T06:05:53;14.55;;;7.00;;
29330;SDS011;16331;52.528;13.342;2022-08-26T06:08:19;12.65;;;7.50;;
29330;SDS011;16331;52.528;13.342;2022-08-26T06:10:52;13.93;;;6.85;;
29330;SDS011;16331;52.528;13.342;2022-08-26T06:13:21;14.75;;;7.05;;
29330;SDS011;16331;52.528;13.342;2022-08-26T06:15:50;16.58;;;6.78;;
29330;SDS011;16331;52.528;13.342;2022-08-26T06:18:20;13.75;;;6.90;;
29330;SDS011;16331;52.528;13.342;2022-08-26T06:20:54;11.77;;;7.07;;
29330;SDS011;16331;52.528;13.342;2022-08-26T06:23:20;15.23;;;7.35;;
29330;SDS011;16331;52.528;13.342;2022-08-26T06:26:05;19.30;;;6.70;;
29330;SDS011;16331;52.528;13.342;2022-08-26T06:28:33;15.25;;;7.07;;
29330;SDS011;16331;52.528;13.342;2022-08-26T06:31:00;17.35;;;7.90;;
29330;SDS011;16331;52.528;13.342;2022-08-26T06:33:26;18.70;;;6.30;;
29330;SDS011;16331;52.528;13.342;2022-08-26T06:35:53;14.48;;;7.25;;
29330;SDS011;16331;52.528;13.342;2022-08-26T06:38:19;14.02;;;6.10;;
29330;SDS011;16331;52.528;13.342;2022-08-26T06:40:47;25.10;;;6.32;;
29330;SDS011;16331;52.528;13.342;2022-08-26T06:43:16;21.58;;;7.43;;
29330;SDS011;16331;52.528;13.342;2022-08-26T06:45:46;24.30;;;7.47;;
29330;SDS011;16331;52.528;13.342;2022-08-26T06:48:13;15.93;;;6.57;;
29330;SDS011;16331;52.528;13.342;2022-08-26T06:50:41;15.75;;;6.78;;
29330;SDS011;16331;52.528;13.342;2022-08-26T06:53:08;12.55;;;6.60;;
29330;SDS011;16331;52.528;13.342;2022-08-26T06:55:40;16.77;;;7.13;;
29330;SDS011;16331;52.528;13.342;2022-08-26T06:58:08;15.90;;;7.20;;
29330;SDS011;16331;52.528;13.342;2022-08-26T07:00:35;18.42;;;7.00;;
29330;SDS011;16331;52.528;13.342;2022-08-26T07:03:02;13.15;;;6.22;;
29330;SDS011;16331;52.528;13.342;2022-08-26T07:05:30;21.42;;;7.03;;
29330;SDS011;16331;52.528;13.342;2022-08-26T07:07:56;12.75;;;7.00;;
29330;SDS011;16331;52.528;13.342;2022-08-26T07:10:23;19.63;;;6.35;;
29330;SDS011;16331;52.528;13.342;2022-08-26T07:12:49;12.75;;;6.32;;
29330;SDS011;16331;52.528;13.342;2022-08-26T07:15:17;16.83;;;7.32;;
29330;SDS011;16331;52.528;13.342;2022-08-26T07:17:43;15.90;;;6.88;;
29330;SDS011;16331;52.528;13.342;2022-08-26T07:20:10;15.48;;;6.45;;
29330;SDS011;16331;52.528;13.342;2022-08-26T07:22:36;23.52;;;9.02;;
29330;SDS011;16331;52.528;13.342;2022-08-26T07:25:03;23.20;;;6.95;;
29330;SDS011;16331;52.528;13.342;2022-08-26T07:27:33;18.90;;;6.60;;
29330;SDS011;16331;52.528;13.342;2022-08-26T07:30:00;23.08;;;6.93;;
29330;SDS011;16331;52.528;13.342;2022-08-26T07:32:28;13.90;;;5.82;;
29330;SDS011;16331;52.528;13.342;2022-08-26T07:34:54;14.10;;;6.45;;
29330;SDS011;16331;52.528;13.342;2022-08-26T07:37:20;12.55;;;6.55;;
29330;SDS011;16331;52.528;13.342;2022-08-26T07:39:47;13.48;;;5.82;;
29330;SDS011;16331;52.528;13.342;2022-08-26T07:42:13;17.63;;;6.35;;
29330;SDS011;16331;52.528;13.342;2022-08-26T07:44:41;16.08;;;5.95;;
29330;SDS011;16331;52.528;13.342;2022-08-26T07:47:08;13.20;;;5.63;;
29330;SDS011;16331;52.528;13.342;2022-08-26T07:49:35;25.90;;;6.75;;
29330;SDS011;16331;52.528;13.342;2022-08-26T07:52:02;17.20;;;6.35;;
29330;SDS011;16331;52.528;13.342;2022-08-26T07:54:29;8.85;;;4.65;;
29330;SDS011;16331;52.528;13.342;2022-08-26T07:56:55;15.00;;;5.15;;
29330;SDS011;16331;52.528;13.342;2022-08-26T07:59:22;11.13;;;5.57;;
29330;SDS011;16331;52.528;13.342;2022-08-26T08:01:49;11.52;;;5.00;;
29330;SDS011;16331;52.528;13.342;2022-08-26T08:04:15;14.60;;;6.10;;
29330;SDS011;16331;52.528;13.342;2022-08-26T08:06:43;17.38;;;7.40;;
29330;SDS011;16331;52.528;13.342;2022-08-26T08:09:11;22.35;;;6.65;;
29330;SDS011;16331;52.528;13.342;2022-08-26T08:11:40;17.25;;;6.38;;
29330;SDS011;16331;52.528;13.342;2022-08-26T08:14:06;13.77;;;5.35;;
29330;SDS011;16331;52.528;13.342;2022-08-26T08:16:33;13.32;;;5.97;;
29330;SDS011;16331;52.528;13.342;2022-08-26T08:18:59;15.70;;;5.55;;
29330;SDS011;16331;52.528;13.342;2022-08-26T08:21:25;15.57;;;5.93;;
29330;SDS011;16331;52.528;13.342;2022-08-26T08:23:52;22.70;;;8.77;;
29330;SDS011;16331;52.528;13.342;2022-08-26T08:26:20;13.00;;;5.50;;
29330;SDS011;16331;52.528;13.342;2022-08-26T08:28:47;13.07;;;5.22;;
29330;SDS011;16331;52.528;13.342;2022-08-26T08:31:17;14.82;;;5.45;;
29330;SDS011;16331;52.528;13.342;2022-08-26T08:33:44;23.95;;;5.50;;
29330;SDS011;16331;52.528;13.342;2022-08-26T08:36:10;13.02;;;4.90;;
29330;SDS011;16331;52.528;13.342;2022-08-26T08:38:38;15.98;;;6.13;;
29330;SDS011;16331;52.528;13.342;2022-08-26T08:41:05;18.40;;;5.68;;
29330;SDS011;16331;52.528;13.342;2022-08-26T08:43:41;13.98;;;4.80;;
29330;SDS011;16331;52.528;13.342;2022-08-26T08:46:11;10.35;;;4.75;;
29330;SDS011;16331;52.528;13.342;2022-08-26T08:48:41;17.05;;;4.43;;
29330;SDS011;16331;52.528;13.342;2022-08-26T08:51:20;17.25;;;4.25;;
29330;SDS011;16331;52.528;13.342;2022-08-26T08:53:51;16.50;;;3.75;;
29330;SDS011;16331;52.528;13.342;2022-08-26T08:59:11;13.52;;;4.18;;
29330;SDS011;16331;52.528;13.342;2022-08-26T09:04:26;19.13;;;4.05;;
29330;SDS011;16331;52.528;13.342;2022-08-26T09:07:15;7.97;;;4.15;;
29330;SDS011;16331;52.528;13.342;2022-08-26T09:10:00;14.38;;;5.43;;
29330;SDS011;16331;52.528;13.342;2022-08-26T09:12:50;12.88;;;3.70;;
29330;SDS011;16331;52.528;13.342;2022-08-26T09:15:22;16.83;;;6.65;;
29330;SDS011;16331;52.528;13.342;2022-08-26T09:18:07;14.65;;;3.63;;
29330;SDS011;16331;52.528;13.342;2022-08-26T09:20:55;15.80;;;3.83;;
29330;SDS011;16331;52.528;13.342;2022-08-26T09:23:30;13.15;;;5.50;;
29330;SDS011;16331;52.528;13.342;2022-08-26T09:25:59;17.67;;;5.40;;
29330;SDS011;16331;52.528;13.342;2022-08-26T09:28:28;10.77;;;3.70;;
29330;SDS011;16331;52.528;13.342;2022-08-26T09:33:42;8.60;;;4.20;;
29330;SDS011;16331;52.528;13.342;2022-08-26T09:36:14;12.35;;;5.47;;
29330;SDS011;16331;52.528;13.342;2022-08-26T09:38:41;7.22;;;3.22;;
29330;SDS011;16331;52.528;13.342;2022-08-26T09:41:22;17.25;;;5.22;;
29330;SDS011;16331;52.528;13.342;2022-08-26T09:44:11;21.52;;;5.97;;
29330;SDS011;16331;52.528;13.342;2022-08-26T09:46:43;18.05;;;6.03;;
29330;SDS011;16331;52.528;13.342;2022-08-26T09:49:19;14.35;;;4.72;;
29330;SDS011;16331;52.528;13.342;2022-08-26T09:54:42;12.43;;;5.25;;
29330;SDS011;16331;52.528;13.342;2022-08-26T09:57:15;17.40;;;4.65;;
29330;SDS011;16331;52.528;13.342;2022-08-26T09:59:49;14.23;;;4.20;;
29330;SDS011;16331;52.528;13.342;2022-08-26T10:02:21;14.75;;;4.25;;
29330;SDS011;16331;52.528;13.342;2022-08-26T10:04:58;14.82;;;3.42;;
29330;SDS011;16331;52.528;13.342;2022-08-26T10:07:37;21.17;;;4.03;;
29330;SDS011;16331;52.528;13.342;2022-08-26T10:10:25;15.20;;;3.83;;
29330;SDS011;16331;52.528;13.342;2022-08-26T10:13:01;16.67;;;4.22;;
29330;SDS011;16331;52.528;13.342;2022-08-26T10:15:27;13.00;;;3.75;;
29330;SDS011;16331;52.528;13.342;2022-08-26T10:18:29;13.48;;;3.47;;
29330;SDS011;16331;52.528;13.342;2022-08-26T10:21:07;16.23;;;3.60;;
29330;SDS011;16331;52.528;13.342;2022-08-26T10:29:01;13.75;;;3.67;;
29330;SDS011;16331;52.528;13.342;2022-08-26T10:31:45;11.57;;;3.63;;
29330;SDS011;16331;52.528;13.342;2022-08-26T10:34:24;17.55;;;4.15;;
29330;SDS011;16331;52.528;13.342;2022-08-26T10:36:55;10.27;;;3.47;;
29330;SDS011;16331;52.528;13.342;2022-08-26T10:41:49;10.77;;;4.05;;
29330;SDS011;16331;52.528;13.342;2022-08-26T10:44:20;20.53;;;4.37;;
29330;SDS011;16331;52.528;13.342;2022-08-26T10:46:49;20.63;;;3.55;;
29330;SDS011;16331;52.528;13.342;2022-08-26T10:49:21;13.00;;;4.15;;
29330;SDS011;16331;52.528;13.342;2022-08-26T10:52:02;13.85;;;4.82;;
29330;SDS011;16331;52.528;13.342;2022-08-26T10:54:42;11.02;;;4.03;;
29330;SDS011;16331;52.528;13.342;2022-08-26T10:59:58;11.43;;;4.03;;
29330;SDS011;16331;52.528;13.342;2022-08-26T11:03:12;16.65;;;4.82;;
29330;SDS011;16331;52.528;13.342;2022-08-26T11:06:13;7.93;;;4.20;;
29330;SDS011;16331;52.528;13.342;2022-08-26T11:09:01;24.55;;;4.70;;
29330;SDS011;16331;52.528;13.342;2022-08-26T11:11:40;14.30;;;4.55;;
29330;SDS011;16331;52.528;13.342;2022-08-26T11:22:30;15.43;;;4.70;;
29330;SDS011;16331;52.528;13.342;2022-08-26T11:30:31;15.77;;;4.65;;
29330;SDS011;16331;52.528;13.342;2022-08-26T11:33:02;16.45;;;4.57;;
29330;SDS011;16331;52.528;13.342;2022-08-26T11:38:03;14.40;;;4.55;;
29330;SDS011;16331;52.528;13.342;2022-08-26T11:40:38;12.93;;;4.28;;
29330;SDS011;16331;52.528;13.342;2022-08-26T11:43:18;15.38;;;4.43;;
29330;SDS011;16331;52.528;13.342;2022-08-26T11:45:56;14.85;;;5.00;;
29330;SDS011;16331;52.528;13.342;2022-08-26T11:50:55;6.50;;;1.58;;
29330;SDS011;16331;52.528;13.342;2022-08-26T11:54:07;3.78;;;1.70;;
29330;SDS011;16331;52.528;13.342;2022-08-26T11:56:43;5.57;;;2.47;;
29330;SDS011;16331;52.528;13.342;2022-08-26T11:59:12;7.38;;;2.08;;
29330;SDS011;16331;52.528;13.342;2022-08-26T12:01:47;6.07;;;2.25;;
29330;SDS011;16331;52.528;13.342;2022-08-26T12:04:32;7.65;;;1.88;;
29330;SDS011;16331;52.528;13.342;2022-08-26T12:07:02;4.93;;;2.65;;
29330;SDS011;16331;52.528;13.342;2022-08-26T12:09:31;6.30;;;2.22;;
29330;SDS011;16331;52.528;13.342;2022-08-26T12:14:45;5.97;;;2.88;;
29330;SDS011;16331;52.528;13.342;2022-08-26T12:17:15;5.00;;;2.28;;
29330;SDS011;16331;52.528;13.342;2022-08-26T12:19:43;7.30;;;3.03;;
29330;SDS011;16331;52.528;13.342;2022-08-26T12:22:17;6.47;;;3.25;;
29330;SDS011;16331;52.528;13.342;2022-08-26T12:24:50;8.90;;;3.53;;
29330;SDS011;16331;52.528;13.342;2022-08-26T12:27:31;5.13;;;3.25;;
29330;SDS011;16331;52.528;13.342;2022-08-26T12:30:12;6.32;;;3.20;;
29330;SDS011;16331;52.528;13.342;2022-08-26T12:32:45;8.90;;;2.70;;
29330;SDS011;16331;52.528;13.342;2022-08-26T12:35:15;8.52;;;2.67;;
29330;SDS011;16331;52.528;13.342;2022-08-26T12:37:47;6.30;;;4.05;;
29330;SDS011;16331;52.528;13.342;2022-08-26T12:40:26;5.97;;;2.78;;
29330;SDS011;16331;52.528;13.342;2022-08-26T12:43:35;4.78;;;1.95;;
29330;SDS011;16331;52.528;13.342;2022-08-26T12:46:04;6.85;;;2.58;;
29330;SDS011;16331;52.528;13.342;2022-08-26T12:48:33;7.18;;;2.45;;
29330;SDS011;16331;52.528;13.342;2022-08-26T12:51:02;9.70;;;2.58;;
29330;SDS011;16331;52.528;13.342;2022-08-26T12:53:31;5.93;;;2.30;;
29330;SDS011;16331;52.528;13.342;2022-08-26T12:56:00;7.15;;;2.67;;
29330;SDS011;16331;52.528;13.342;2022-08-26T12:58:30;4.82;;;2.53;;
29330;SDS011;16331;52.528;13.342;2022-08-26T13:03:35;7.25;;;2.97;;
29330;SDS011;16331;52.528;13.342;2022-08-26T13:11:33;5.72;;;4.10;;
29330;SDS011;16331;52.528;13.342;2022-08-26T13:14:12;8.73;;;4.13;;
29330;SDS011;16331;52.528;13.342;2022-08-26T13:16:43;7.70;;;4.35;;
29330;SDS011;16331;52.528;13.342;2022-08-26T13:19:17;8.18;;;5.30;;
29330;SDS011;16331;52.528;13.342;2022-08-26T13:21:46;8.82;;;5.10;;
29330;SDS011;16331;52.528;13.342;2022-08-26T13:24:31;7.38;;;5.03;;
29330;SDS011;16331;52.528;13.342;2022-08-26T13:27:00;10.35;;;5.45;;
29330;SDS011;16331;52.528;13.342;2022-08-26T13:29:27;12.27;;;5.57;;
29330;SDS011;16331;52.528;13.342;2022-08-26T13:31:53;7.82;;;4.82;;
29330;SDS011;16331;52.528;13.342;2022-08-26T13:34:20;11.27;;;5.53;;
29330;SDS011;16331;52.528;13.342;2022-08-26T13:36:47;10.45;;;5.95;;
29330;SDS011;16331;52.528;13.342;2022-08-26T13:39:15;11.02;;;5.32;;
29330;SDS011;16331;52.528;13.342;2022-08-26T13:41:41;10.63;;;5.75;;
29330;SDS011;16331;52.528;13.342;2022-08-26T13:44:09;9.65;;;4.97;;
29330;SDS011;16331;52.528;13.342;2022-08-26T13:46:37;13.30;;;5.90;;
29330;SDS011;16331;52.528;13.342;2022-08-26T13:49:03;12.00;;;5.50;;
29330;SDS011;16331;52.528;13.342;2022-08-26T13:51:30;12.70;;;5.00;;
29330;SDS011;16331;52.528;13.342;2022-08-26T13:53:57;13.38;;;6.32;;
29330;SDS011;16331;52.528;13.342;2022-08-26T13:56:24;10.60;;;5.20;;
29330;SDS011;16331;52.528;13.342;2022-08-26T13:58:53;12.60;;;6.40;;
29330;SDS011;16331;52.528;13.342;2022-08-26T14:01:20;12.77;;;6.00;;
29330;SDS011;16331;52.528;13.342;2022-08-26T14:03:47;8.48;;;5.18;;
29330;SDS011;16331;52.528;13.342;2022-08-26T14:06:14;11.05;;;5.80;;
29330;SDS011;16331;52.528;13.342;2022-08-26T14:08:40;8.27;;;5.47;;
29330;SDS011;16331;52.528;13.342;2022-08-26T14:11:07;11.75;;;5.97;;
29330;SDS011;16331;52.528;13.342;2022-08-26T14:13:33;11.68;;;5.57;;
29330;SDS011;16331;52.528;13.342;2022-08-26T14:16:02;9.82;;;6.40;;
29330;SDS011;16331;52.528;13.342;2022-08-26T14:18:35;11.48;;;5.90;;
29330;SDS011;16331;52.528;13.342;2022-08-26T14:21:04;14.05;;;6.50;;
29330;SDS011;16331;52.528;13.342;2022-08-26T14:23:31;9.60;;;6.85;;
29330;SDS011;16331;52.528;13.342;2022-08-26T14:26:01;11.65;;;7.20;;
29330;SDS011;16331;52.528;13.342;2022-08-26T14:28:31;11.23;;;6.75;;
29330;SDS011;16331;52.528;13.342;2022-08-26T14:30:59;17.05;;;6.05;;
29330;SDS011;16331;52.528;13.342;2022-08-26T14:33:27;13.25;;;5.53;;
29330;SDS011;16331;52.528;13.342;2022-08-26T14:35:56;10.15;;;5.10;;
29330;SDS011;16331;52.528;13.342;2022-08-26T14:38:45;8.88;;;5.85;;
29330;SDS011;16331;52.528;13.342;2022-08-26T14:41:12;9.20;;;5.97;;
29330;SDS011;16331;52.528;13.342;2022-08-26T14:43:53;9.75;;;6.05;;
29330;SDS011;16331;52.528;13.342;2022-08-26T14:46:24;16.10;;;4.97;;
29330;SDS011;16331;52.528;13.342;2022-08-26T14:48:53;9.10;;;5.18;;
29330;SDS011;16331;52.528;13.342;2022-08-26T14:51:20;6.97;;;4.20;;
29330;SDS011;16331;52.528;13.342;2022-08-26T14:53:49;12.13;;;4.82;;
29330;SDS011;16331;52.528;13.342;2022-08-26T14:56:37;11.70;;;5.75;;
29330;SDS011;16331;52.528;13.342;2022-08-26T14:59:09;9.02;;;5.38;;
29330;SDS011;16331;52.528;13.342;2022-08-26T15:01:37;12.50;;;5.70;;
29330;SDS011;16331;52.528;13.342;2022-08-26T15:04:03;14.45;;;5.75;;
29330;SDS011;16331;52.528;13.342;2022-08-26T15:06:30;13.43;;;6.32;;
29330;SDS011;16331;52.528;13.342;2022-08-26T15:08:57;9.80;;;5.05;;
29330;SDS011;16331;52.528;13.342;2022-08-26T15:11:23;12.38;;;5.50;;
29330;SDS011;16331;52.528;13.342;2022-08-26T15:13:53;14.60;;;6.15;;
29330;SDS011;16331;52.528;13.342;2022-08-26T15:16:23;20.80;;;6.18;;
29330;SDS011;16331;52.528;13.342;2022-08-26T15:18:50;14.27;;;6.45;;
29330;SDS011;16331;52.528;13.342;2022-08-26T15:21:17;16.27;;;6.45;;
29330;SDS011;16331;52.528;13.342;2022-08-26T15:23:44;14.75;;;6.60;;
29330;SDS011;16331;52.528;13.342;2022-08-26T15:26:11;17.77;;;6.32;;
29330;SDS011;16331;52.528;13.342;2022-08-26T15:28:40;13.50;;;6.30;;
29330;SDS011;16331;52.528;13.342;2022-08-26T15:31:07;10.85;;;5.80;;
29330;SDS011;16331;52.528;13.342;2022-08-26T15:33:36;15.45;;;6.15;;
29330;SDS011;16331;52.528;13.342;2022-08-26T15:36:04;12.70;;;7.88;;